sensor_id;sensor_type;location;lat;lon;timestamp;temperature;humidity
41904;DHT22;27586;51.124;4.182;2022-09-09T00:03:49;15.30;99.90
41904;DHT22;27586;51.124;4.182;2022-09-09T00:06:29;15.30;99.90
41904;DHT22;27586;51.124;4.182;2022-09-09T00:09:12;15.20;99.90
41904;DHT22;27586;51.124;4.182;2022-09-09T00:14:40;15.30;99.90
41904;DHT22;27586;51.124;4.182;2022-09-09T00:17:24;15.30;99.90
41904;DHT22;27586;51.124;4.182;2022-09-09T00:23:14;15.30;99.90
41904;DHT22;27586;51.124;4.182;2022-09-09T00:25:49;15.40;99.90
41904;DHT22;27586;51.124;4.182;2022-09-09T00:28:22;15.40;99.90
41904;DHT22;27586;51.124;4.182;2022-09-09T00:30:48;15.40;99.90
41904;DHT22;27586;51.124;4.182;2022-09-09T00:33:17;15.40;99.90
41904;DHT22;27586;51.124;4.182;2022-09-09T00:35:49;15.40;99.90
41904;DHT22;27586;51.124;4.182;2022-09-09T00:38:38;15.40;99.90
41904;DHT22;27586;51.124;4.182;2022-09-09T00:41:14;15.30;99.90
41904;DHT22;27586;51.124;4.182;2022-09-09T00:43:56;15.30;99.90
41904;DHT22;27586;51.124;4.182;2022-09-09T00:59:46;15.10;99.90
41904;DHT22;27586;51.124;4.182;2022-09-09T01:02:57;15.10;99.90
41904;DHT22;27586;51.124;4.182;2022-09-09T01:10:54;15.00;99.90
41904;DHT22;27586;51.124;4.182;2022-09-09T01:13:31;15.00;99.90
41904;DHT22;27586;51.124;4.182;2022-09-09T01:16:00;15.00;99.90
41904;DHT22;27586;51.124;4.182;2022-09-09T01:18:49;15.00;99.90
41904;DHT22;27586;51.124;4.182;2022-09-09T01:21:20;15.10;99.90
41904;DHT22;27586;51.124;4.182;2022-09-09T01:24:15;15.10;99.90
41904;DHT22;27586;51.124;4.182;2022-09-09T01:26:45;15.10;99.90
41904;DHT22;27586;51.124;4.182;2022-09-09T01:29:17;15.10;99.90
41904;DHT22;27586;51.124;4.182;2022-09-09T01:32:01;15.10;99.90
41904;DHT22;27586;51.124;4.182;2022-09-09T01:34:37;15.10;99.90
41904;DHT22;27586;51.124;4.182;2022-09-09T01:37:07;15.20;99.90
41904;DHT22;27586;51.124;4.182;2022-09-09T01:39:36;15.10;99.90
41904;DHT22;27586;51.124;4.182;2022-09-09T01:42:04;15.20;99.90
41904;DHT22;27586;51.124;4.182;2022-09-09T01:44:34;15.10;99.90
41904;DHT22;27586;51.124;4.182;2022-09-09T01:47:00;15.00;99.90
41904;DHT22;27586;51.124;4.182;2022-09-09T01:49:25;15.00;99.90
41904;DHT22;27586;51.124;4.182;2022-09-09T01:51:54;15.00;99.90
41904;DHT22;27586;51.124;4.182;2022-09-09T01:54:21;15.00;99.90
41904;DHT22;27586;51.124;4.182;2022-09-09T02:08:11;14.90;99.90
41904;DHT22;27586;51.124;4.182;2022-09-09T02:10:57;15.00;99.90
41904;DHT22;27586;51.124;4.182;2022-09-09T02:13:25;14.80;99.90
41904;DHT22;27586;51.124;4.182;2022-09-09T02:18:24;14.70;99.90
41904;DHT22;27586;51.124;4.182;2022-09-09T02:20:53;14.80;99.90
41904;DHT22;27586;51.124;4.182;2022-09-09T02:23:19;14.80;99.90
41904;DHT22;27586;51.124;4.182;2022-09-09T02:25:46;14.90;99.90
41904;DHT22;27586;51.124;4.182;2022-09-09T02:28:14;14.80;99.90
41904;DHT22;27586;51.124;4.182;2022-09-09T02:30:41;14.80;99.90
41904;DHT22;27586;51.124;4.182;2022-09-09T02:33:11;14.80;99.90
41904;DHT22;27586;51.124;4.182;2022-09-09T02:35:38;14.80;99.90
41904;DHT22;27586;51.124;4.182;2022-09-09T02:38:10;14.80;99.90
41904;DHT22;27586;51.124;4.182;2022-09-09T02:40:37;14.80;99.90
41904;DHT22;27586;51.124;4.182;2022-09-09T02:43:03;14.90;99.90
41904;DHT22;27586;51.124;4.182;2022-09-09T02:45:40;14.90;99.90
41904;DHT22;27586;51.124;4.182;2022-09-09T02:51:15;15.10;99.90
41904;DHT22;27586;51.124;4.182;2022-09-09T02:53:59;15.10;99.90
41904;DHT22;27586;51.124;4.182;2022-09-09T02:56:27;15.10;99.90
41904;DHT22;27586;51.124;4.182;2022-09-09T02:58:55;15.10;99.90
41904;DHT22;27586;51.124;4.182;2022-09-09T03:01:21;15.00;99.90
41904;DHT22;27586;51.124;4.182;2022-09-09T03:03:47;15.00;99.90
41904;DHT22;27586;51.124;4.182;2022-09-09T03:06:13;15.00;99.90
41904;DHT22;27586;51.124;4.182;2022-09-09T03:08:40;15.00;99.90
41904;DHT22;27586;51.124;4.182;2022-09-09T03:11:05;15.10;99.90
41904;DHT22;27586;51.124;4.182;2022-09-09T03:13:31;15.10;99.90
41904;DHT22;27586;51.124;4.182;2022-09-09T03:15:57;15.10;99.90
41904;DHT22;27586;51.124;4.182;2022-09-09T03:18:22;15.20;99.90
41904;DHT22;27586;51.124;4.182;2022-09-09T03:20:48;15.20;99.90
41904;DHT22;27586;51.124;4.182;2022-09-09T03:23:14;15.20;99.90
41904;DHT22;27586;51.124;4.182;2022-09-09T03:25:47;15.20;99.90
41904;DHT22;27586;51.124;4.182;2022-09-09T03:28:14;15.20;99.90
41904;DHT22;27586;51.124;4.182;2022-09-09T03:30:41;15.20;99.90
41904;DHT22;27586;51.124;4.182;2022-09-09T03:33:06;15.10;99.90
41904;DHT22;27586;51.124;4.182;2022-09-09T03:35:32;15.10;99.90
41904;DHT22;27586;51.124;4.182;2022-09-09T03:37:57;15.10;99.90
41904;DHT22;27586;51.124;4.182;2022-09-09T03:40:23;15.10;99.90
41904;DHT22;27586;51.124;4.182;2022-09-09T03:42:49;15.10;99.90
41904;DHT22;27586;51.124;4.182;2022-09-09T03:45:14;15.10;99.90
41904;DHT22;27586;51.124;4.182;2022-09-09T03:47:40;15.10;99.90
41904;DHT22;27586;51.124;4.182;2022-09-09T03:50:07;15.10;99.90
41904;DHT22;27586;51.124;4.182;2022-09-09T03:52:39;15.10;99.90
41904;DHT22;27586;51.124;4.182;2022-09-09T03:55:06;15.10;99.90
41904;DHT22;27586;51.124;4.182;2022-09-09T03:57:33;15.00;99.90
41904;DHT22;27586;51.124;4.182;2022-09-09T04:00:05;14.90;99.90
41904;DHT22;27586;51.124;4.182;2022-09-09T04:02:32;15.00;99.90
41904;DHT22;27586;51.124;4.182;2022-09-09T04:04:57;15.00;99.90
41904;DHT22;27586;51.124;4.182;2022-09-09T04:07:23;15.00;99.90
41904;DHT22;27586;51.124;4.182;2022-09-09T04:09:48;15.00;99.90
41904;DHT22;27586;51.124;4.182;2022-09-09T04:12:14;15.00;99.90
41904;DHT22;27586;51.124;4.182;2022-09-09T04:14:40;14.90;99.90
41904;DHT22;27586;51.124;4.182;2022-09-09T04:17:05;14.90;99.90
41904;DHT22;27586;51.124;4.182;2022-09-09T04:19:32;14.90;99.90
41904;DHT22;27586;51.124;4.182;2022-09-09T04:21:58;14.90;99.90
41904;DHT22;27586;51.124;4.182;2022-09-09T04:24:24;14.90;99.90
41904;DHT22;27586;51.124;4.182;2022-09-09T04:26:51;14.90;99.90
41904;DHT22;27586;51.124;4.182;2022-09-09T04:29:17;14.90;99.90
41904;DHT22;27586;51.124;4.182;2022-09-09T04:31:43;14.90;99.90
41904;DHT22;27586;51.124;4.182;2022-09-09T04:34:10;14.90;99.90
41904;DHT22;27586;51.124;4.182;2022-09-09T04:36:35;14.90;99.90
41904;DHT22;27586;51.124;4.182;2022-09-09T04:39:01;15.00;99.90
41904;DHT22;27586;51.124;4.182;2022-09-09T04:41:27;15.10;99.90
41904;DHT22;27586;51.124;4.182;2022-09-09T04:43:54;15.00;99.90
41904;DHT22;27586;51.124;4.182;2022-09-09T04:46:22;15.00;99.90
41904;DHT22;27586;51.124;4.182;2022-09-09T04:48:49;15.00;99.90
41904;DHT22;27586;51.124;4.182;2022-09-09T04:51:15;15.10;99.90
41904;DHT22;27586;51.124;4.182;2022-09-09T04:53:41;15.10;99.90
41904;DHT22;27586;51.124;4.182;2022-09-09T04:58:36;15.10;99.90
41904;DHT22;27586;51.124;4.182;2022-09-09T05:01:07;15.10;99.90
41904;DHT22;27586;51.124;4.182;2022-09-09T05:03:33;15.10;99.90
41904;DHT22;27586;51.124;4.182;2022-09-09T05:06:06;15.00;99.90
41904;DHT22;27586;51.124;4.182;2022-09-09T05:08:34;15.10;99.90
41904;DHT22;27586;51.124;4.182;2022-09-09T05:11:00;15.00;99.90
41904;DHT22;27586;51.124;4.182;2022-09-09T05:13:26;15.10;99.90
41904;DHT22;27586;51.124;4.182;2022-09-09T05:15:54;15.10;99.90
41904;DHT22;27586;51.124;4.182;2022-09-09T05:18:19;15.10;99.90
41904;DHT22;27586;51.124;4.182;2022-09-09T05:20:45;15.20;99.90
41904;DHT22;27586;51.124;4.182;2022-09-09T05:23:11;15.30;99.90
41904;DHT22;27586;51.124;4.182;2022-09-09T05:25:38;15.30;99.90
41904;DHT22;27586;51.124;4.182;2022-09-09T05:28:06;15.20;99.90
41904;DHT22;27586;51.124;4.182;2022-09-09T05:30:33;15.30;99.90
41904;DHT22;27586;51.124;4.182;2022-09-09T05:32:59;15.30;99.90
41904;DHT22;27586;51.124;4.182;2022-09-09T05:35:25;15.30;99.90
41904;DHT22;27586;51.124;4.182;2022-09-09T05:37:51;15.20;99.90
41904;DHT22;27586;51.124;4.182;2022-09-09T05:40:16;15.30;99.90
41904;DHT22;27586;51.124;4.182;2022-09-09T05:42:42;15.40;99.90
41904;DHT22;27586;51.124;4.182;2022-09-09T05:45:08;15.30;99.90
41904;DHT22;27586;51.124;4.182;2022-09-09T05:47:34;15.30;99.90
41904;DHT22;27586;51.124;4.182;2022-09-09T05:50:01;15.30;99.90
41904;DHT22;27586;51.124;4.182;2022-09-09T05:52:26;15.30;99.90
41904;DHT22;27586;51.124;4.182;2022-09-09T05:54:54;15.40;99.90
41904;DHT22;27586;51.124;4.182;2022-09-09T05:57:21;15.30;99.90
41904;DHT22;27586;51.124;4.182;2022-09-09T05:59:47;15.40;99.90
41904;DHT22;27586;51.124;4.182;2022-09-09T06:02:13;15.40;99.90
41904;DHT22;27586;51.124;4.182;2022-09-09T06:04:39;15.40;99.90
41904;DHT22;27586;51.124;4.182;2022-09-09T06:07:04;15.30;99.90
41904;DHT22;27586;51.124;4.182;2022-09-09T06:09:30;15.40;99.90
41904;DHT22;27586;51.124;4.182;2022-09-09T06:11:56;15.40;99.90
41904;DHT22;27586;51.124;4.182;2022-09-09T06:14:23;15.50;99.90
41904;DHT22;27586;51.124;4.182;2022-09-09T06:16:50;15.50;99.90
41904;DHT22;27586;51.124;4.182;2022-09-09T06:19:16;15.50;99.90
41904;DHT22;27586;51.124;4.182;2022-09-09T06:21:42;15.50;99.90
41904;DHT22;27586;51.124;4.182;2022-09-09T06:24:10;15.60;99.90
41904;DHT22;27586;51.124;4.182;2022-09-09T06:26:38;15.60;99.90
41904;DHT22;27586;51.124;4.182;2022-09-09T06:29:07;15.60;99.90
41904;DHT22;27586;51.124;4.182;2022-09-09T06:31:34;15.50;99.90
41904;DHT22;27586;51.124;4.182;2022-09-09T06:34:04;15.60;99.90
41904;DHT22;27586;51.124;4.182;2022-09-09T06:36:32;15.70;99.90
41904;DHT22;27586;51.124;4.182;2022-09-09T06:38:58;15.70;99.90
41904;DHT22;27586;51.124;4.182;2022-09-09T06:41:26;15.70;99.90
41904;DHT22;27586;51.124;4.182;2022-09-09T06:43:52;15.80;99.90
41904;DHT22;27586;51.124;4.182;2022-09-09T06:46:22;15.80;99.90
41904;DHT22;27586;51.124;4.182;2022-09-09T06:48:48;15.80;99.90
41904;DHT22;27586;51.124;4.182;2022-09-09T06:51:19;15.80;99.90
41904;DHT22;27586;51.124;4.182;2022-09-09T06:53:50;15.90;99.90
41904;DHT22;27586;51.124;4.182;2022-09-09T06:58:42;16.00;99.90
41904;DHT22;27586;51.124;4.182;2022-09-09T07:01:16;16.10;99.90
41904;DHT22;27586;51.124;4.182;2022-09-09T07:03:46;16.10;99.90
41904;DHT22;27586;51.124;4.182;2022-09-09T07:06:15;15.90;99.90
41904;DHT22;27586;51.124;4.182;2022-09-09T07:08:43;15.90;99.90
41904;DHT22;27586;51.124;4.182;2022-09-09T07:11:09;15.90;99.90
41904;DHT22;27586;51.124;4.182;2022-09-09T07:13:35;15.90;99.90
41904;DHT22;27586;51.124;4.182;2022-09-09T07:16:20;15.90;99.90
41904;DHT22;27586;51.124;4.182;2022-09-09T07:18:48;16.00;99.90
41904;DHT22;27586;51.124;4.182;2022-09-09T07:21:14;16.00;99.90
41904;DHT22;27586;51.124;4.182;2022-09-09T07:23:44;16.10;99.90
41904;DHT22;27586;51.124;4.182;2022-09-09T07:26:29;16.10;99.90
41904;DHT22;27586;51.124;4.182;2022-09-09T07:28:58;16.30;99.90
41904;DHT22;27586;51.124;4.182;2022-09-09T07:31:30;16.10;99.90
41904;DHT22;27586;51.124;4.182;2022-09-09T07:33:56;16.10;99.90
41904;DHT22;27586;51.124;4.182;2022-09-09T07:36:24;16.10;99.90
41904;DHT22;27586;51.124;4.182;2022-09-09T07:38:56;16.20;99.90
41904;DHT22;27586;51.124;4.182;2022-09-09T07:41:28;16.20;99.90
41904;DHT22;27586;51.124;4.182;2022-09-09T07:43:55;16.20;99.90
41904;DHT22;27586;51.124;4.182;2022-09-09T07:46:23;16.30;99.90
41904;DHT22;27586;51.124;4.182;2022-09-09T07:48:54;16.30;99.90
41904;DHT22;27586;51.124;4.182;2022-09-09T07:51:26;16.30;99.90
41904;DHT22;27586;51.124;4.182;2022-09-09T07:53:54;16.30;99.90
41904;DHT22;27586;51.124;4.182;2022-09-09T07:56:25;16.30;99.90
41904;DHT22;27586;51.124;4.182;2022-09-09T07:58:52;16.40;99.90
41904;DHT22;27586;51.124;4.182;2022-09-09T08:01:25;16.30;99.90
41904;DHT22;27586;51.124;4.182;2022-09-09T08:04:03;16.20;99.90
41904;DHT22;27586;51.124;4.182;2022-09-09T08:06:32;16.40;99.90
41904;DHT22;27586;51.124;4.182;2022-09-09T08:08:59;16.40;99.90
41904;DHT22;27586;51.124;4.182;2022-09-09T08:11:27;16.50;99.90
41904;DHT22;27586;51.124;4.182;2022-09-09T08:13:53;16.60;99.90
41904;DHT22;27586;51.124;4.182;2022-09-09T08:16:22;16.60;99.90
41904;DHT22;27586;51.124;4.182;2022-09-09T08:18:49;16.70;99.90
41904;DHT22;27586;51.124;4.182;2022-09-09T08:21:23;16.90;99.90
41904;DHT22;27586;51.124;4.182;2022-09-09T08:23:51;16.80;99.90
41904;DHT22;27586;51.124;4.182;2022-09-09T08:26:25;16.80;99.90
41904;DHT22;27586;51.124;4.182;2022-09-09T08:28:54;16.80;99.90
41904;DHT22;27586;51.124;4.182;2022-09-09T08:31:26;16.80;99.90
41904;DHT22;27586;51.124;4.182;2022-09-09T08:33:54;17.00;99.90
41904;DHT22;27586;51.124;4.182;2022-09-09T08:36:22;17.00;99.90
41904;DHT22;27586;51.124;4.182;2022-09-09T08:38:53;16.90;99.90
41904;DHT22;27586;51.124;4.182;2022-09-09T08:50:08;16.80;99.90
41904;DHT22;27586;51.124;4.182;2022-09-09T08:55:22;16.60;99.90
41904;DHT22;27586;51.124;4.182;2022-09-09T08:57:54;16.50;99.90
41904;DHT22;27586;51.124;4.182;2022-09-09T09:00:21;16.50;99.90
41904;DHT22;27586;51.124;4.182;2022-09-09T09:03:02;16.50;99.90
41904;DHT22;27586;51.124;4.182;2022-09-09T09:05:37;16.40;99.90
41904;DHT22;27586;51.124;4.182;2022-09-09T09:08:31;16.40;99.90
41904;DHT22;27586;51.124;4.182;2022-09-09T09:11:00;16.40;99.90
41904;DHT22;27586;51.124;4.182;2022-09-09T09:13:47;16.50;99.90
41904;DHT22;27586;51.124;4.182;2022-09-09T09:16:38;16.50;99.90
41904;DHT22;27586;51.124;4.182;2022-09-09T09:19:05;16.50;99.90
41904;DHT22;27586;51.124;4.182;2022-09-09T09:21:41;16.40;99.90
41904;DHT22;27586;51.124;4.182;2022-09-09T09:24:21;16.50;99.90
41904;DHT22;27586;51.124;4.182;2022-09-09T09:26:49;16.50;99.90
41904;DHT22;27586;51.124;4.182;2022-09-09T09:29:19;16.60;99.90
41904;DHT22;27586;51.124;4.182;2022-09-09T09:32:03;16.60;99.90
41904;DHT22;27586;51.124;4.182;2022-09-09T09:34:30;16.50;99.90
41904;DHT22;27586;51.124;4.182;2022-09-09T09:36:57;16.50;99.90
41904;DHT22;27586;51.124;4.182;2022-09-09T09:39:25;16.60;99.90
41904;DHT22;27586;51.124;4.182;2022-09-09T09:41:51;16.50;99.90
41904;DHT22;27586;51.124;4.182;2022-09-09T09:46:51;16.50;99.90
41904;DHT22;27586;51.124;4.182;2022-09-09T09:49:17;16.50;99.90
41904;DHT22;27586;51.124;4.182;2022-09-09T09:51:43;16.50;99.90
41904;DHT22;27586;51.124;4.182;2022-09-09T09:56:47;16.50;99.90
41904;DHT22;27586;51.124;4.182;2022-09-09T10:01:53;16.70;99.90
41904;DHT22;27586;51.124;4.182;2022-09-09T10:04:21;16.90;99.90
41904;DHT22;27586;51.124;4.182;2022-09-09T10:06:50;17.00;99.90
41904;DHT22;27586;51.124;4.182;2022-09-09T10:09:27;16.90;99.90
41904;DHT22;27586;51.124;4.182;2022-09-09T10:14:39;16.90;99.90
41904;DHT22;27586;51.124;4.182;2022-09-09T10:23:12;17.10;99.90
41904;DHT22;27586;51.124;4.182;2022-09-09T10:31:49;17.10;99.90
41904;DHT22;27586;51.124;4.182;2022-09-09T10:57:17;17.30;99.90
41904;DHT22;27586;51.124;4.182;2022-09-09T10:59:52;17.40;99.90
41904;DHT22;27586;51.124;4.182;2022-09-09T11:02:30;17.50;99.90
41904;DHT22;27586;51.124;4.182;2022-09-09T11:05:14;17.50;99.90
41904;DHT22;27586;51.124;4.182;2022-09-09T11:07:42;17.50;99.90
41904;DHT22;27586;51.124;4.182;2022-09-09T11:13:03;17.60;99.90
41904;DHT22;27586;51.124;4.182;2022-09-09T11:15:42;17.60;99.90
41904;DHT22;27586;51.124;4.182;2022-09-09T11:18:19;17.70;99.90
41904;DHT22;27586;51.124;4.182;2022-09-09T11:20:49;17.70;99.90
41904;DHT22;27586;51.124;4.182;2022-09-09T11:23:43;17.80;99.90
41904;DHT22;27586;51.124;4.182;2022-09-09T11:26:27;17.90;99.90
41904;DHT22;27586;51.124;4.182;2022-09-09T11:31:54;18.10;99.90
41904;DHT22;27586;51.124;4.182;2022-09-09T11:42:35;18.40;99.90
41904;DHT22;27586;51.124;4.182;2022-09-09T11:45:19;18.60;99.90
41904;DHT22;27586;51.124;4.182;2022-09-09T11:47:54;18.70;99.90
41904;DHT22;27586;51.124;4.182;2022-09-09T11:52:47;18.50;99.90
41904;DHT22;27586;51.124;4.182;2022-09-09T11:55:35;18.50;99.90
41904;DHT22;27586;51.124;4.182;2022-09-09T12:03:04;18.60;99.90
41904;DHT22;27586;51.124;4.182;2022-09-09T12:05:38;18.60;99.90
41904;DHT22;27586;51.124;4.182;2022-09-09T12:08:05;18.70;99.90
41904;DHT22;27586;51.124;4.182;2022-09-09T12:10:33;18.80;99.90
41904;DHT22;27586;51.124;4.182;2022-09-09T12:13:17;18.90;99.90
41904;DHT22;27586;51.124;4.182;2022-09-09T12:15:53;19.10;99.90
41904;DHT22;27586;51.124;4.182;2022-09-09T12:21:14;19.10;99.90
41904;DHT22;27586;51.124;4.182;2022-09-09T12:23:48;19.10;99.90
41904;DHT22;27586;51.124;4.182;2022-09-09T12:31:45;18.70;99.90
41904;DHT22;27586;51.124;4.182;2022-09-09T12:37:14;18.70;99.90
41904;DHT22;27586;51.124;4.182;2022-09-09T12:40:00;18.80;99.90
41904;DHT22;27586;51.124;4.182;2022-09-09T12:42:28;18.90;99.90
41904;DHT22;27586;51.124;4.182;2022-09-09T12:44:58;19.30;99.90
41904;DHT22;27586;51.124;4.182;2022-09-09T12:47:36;19.60;99.90
41904;DHT22;27586;51.124;4.182;2022-09-09T12:50:16;19.80;99.90
41904;DHT22;27586;51.124;4.182;2022-09-09T12:52:42;19.80;99.90
41904;DHT22;27586;51.124;4.182;2022-09-09T12:55:38;19.70;99.90
41904;DHT22;27586;51.124;4.182;2022-09-09T12:58:03;19.90;99.90
41904;DHT22;27586;51.124;4.182;2022-09-09T13:00:33;19.90;99.90
41904;DHT22;27586;51.124;4.182;2022-09-09T13:03:01;19.90;99.90
41904;DHT22;27586;51.124;4.182;2022-09-09T13:05:37;19.70;99.90
41904;DHT22;27586;51.124;4.182;2022-09-09T13:08:11;19.90;99.90
41904;DHT22;27586;51.124;4.182;2022-09-09T13:10:47;20.10;99.90
41904;DHT22;27586;51.124;4.182;2022-09-09T13:13:22;20.30;99.90
41904;DHT22;27586;51.124;4.182;2022-09-09T13:15:54;20.30;99.90
41904;DHT22;27586;51.124;4.182;2022-09-09T13:18:26;20.30;99.90
41904;DHT22;27586;51.124;4.182;2022-09-09T13:20:52;20.20;99.90
41904;DHT22;27586;51.124;4.182;2022-09-09T13:23:20;20.20;99.90
41904;DHT22;27586;51.124;4.182;2022-09-09T13:26:03;20.00;99.90
41904;DHT22;27586;51.124;4.182;2022-09-09T13:28:31;20.10;99.90
41904;DHT22;27586;51.124;4.182;2022-09-09T13:33:33;20.10;99.90
41904;DHT22;27586;51.124;4.182;2022-09-09T13:36:05;20.20;99.90
41904;DHT22;27586;51.124;4.182;2022-09-09T13:38:37;20.20;99.90
41904;DHT22;27586;51.124;4.182;2022-09-09T13:41:04;20.30;99.90
41904;DHT22;27586;51.124;4.182;2022-09-09T13:43:51;20.10;99.90
41904;DHT22;27586;51.124;4.182;2022-09-09T13:51:42;19.90;99.90
41904;DHT22;27586;51.124;4.182;2022-09-09T13:54:13;19.80;99.90
41904;DHT22;27586;51.124;4.182;2022-09-09T13:56:40;19.90;99.90
41904;DHT22;27586;51.124;4.182;2022-09-09T13:59:16;19.90;99.90
41904;DHT22;27586;51.124;4.182;2022-09-09T14:01:43;19.90;99.90
41904;DHT22;27586;51.124;4.182;2022-09-09T14:04:10;20.00;99.90
41904;DHT22;27586;51.124;4.182;2022-09-09T14:06:36;20.10;99.90
41904;DHT22;27586;51.124;4.182;2022-09-09T14:09:10;20.20;99.90
41904;DHT22;27586;51.124;4.182;2022-09-09T14:11:36;20.40;99.90
41904;DHT22;27586;51.124;4.182;2022-09-09T14:14:02;20.40;99.90
41904;DHT22;27586;51.124;4.182;2022-09-09T14:16:28;20.40;99.90
41904;DHT22;27586;51.124;4.182;2022-09-09T14:18:54;20.50;99.90
41904;DHT22;27586;51.124;4.182;2022-09-09T14:21:25;20.50;99.90
41904;DHT22;27586;51.124;4.182;2022-09-09T14:23:51;20.60;99.90
41904;DHT22;27586;51.124;4.182;2022-09-09T14:26:21;20.50;99.90
41904;DHT22;27586;51.124;4.182;2022-09-09T14:28:48;20.60;99.90
41904;DHT22;27586;51.124;4.182;2022-09-09T14:31:14;20.60;99.90
41904;DHT22;27586;51.124;4.182;2022-09-09T14:33:40;20.40;99.90
41904;DHT22;27586;51.124;4.182;2022-09-09T14:36:06;20.30;99.90
41904;DHT22;27586;51.124;4.182;2022-09-09T14:38:37;20.30;99.90
41904;DHT22;27586;51.124;4.182;2022-09-09T14:41:10;20.40;99.90
41904;DHT22;27586;51.124;4.182;2022-09-09T14:43:38;20.20;99.90
41904;DHT22;27586;51.124;4.182;2022-09-09T14:46:15;20.10;99.90
41904;DHT22;27586;51.124;4.182;2022-09-09T14:48:41;19.90;99.90
41904;DHT22;27586;51.124;4.182;2022-09-09T14:51:08;19.90;99.90
41904;DHT22;27586;51.124;4.182;2022-09-09T14:53:34;19.70;99.90
41904;DHT22;27586;51.124;4.182;2022-09-09T14:56:04;19.60;99.90
41904;DHT22;27586;51.124;4.182;2022-09-09T14:58:31;19.50;99.90
41904;DHT22;27586;51.124;4.182;2022-09-09T15:01:06;19.50;99.90
41904;DHT22;27586;51.124;4.182;2022-09-09T15:03:32;19.50;99.90
41904;DHT22;27586;51.124;4.182;2022-09-09T15:06:04;19.40;99.90
41904;DHT22;27586;51.124;4.182;2022-09-09T15:08:29;19.50;99.90
41904;DHT22;27586;51.124;4.182;2022-09-09T15:10:59;19.50;99.90
41904;DHT22;27586;51.124;4.182;2022-09-09T15:13:26;19.50;99.90
41904;DHT22;27586;51.124;4.182;2022-09-09T15:15:52;19.60;99.90
41904;DHT22;27586;51.124;4.182;2022-09-09T15:18:20;19.70;99.90
41904;DHT22;27586;51.124;4.182;2022-09-09T15:20:46;19.70;99.90
41904;DHT22;27586;51.124;4.182;2022-09-09T15:23:12;19.80;99.90
41904;DHT22;27586;51.124;4.182;2022-09-09T15:25:37;19.70;99.90
41904;DHT22;27586;51.124;4.182;2022-09-09T15:28:03;19.70;99.90
41904;DHT22;27586;51.124;4.182;2022-09-09T15:30:29;19.50;99.90
41904;DHT22;27586;51.124;4.182;2022-09-09T15:32:54;19.30;99.90
41904;DHT22;27586;51.124;4.182;2022-09-09T15:35:20;19.10;99.90
41904;DHT22;27586;51.124;4.182;2022-09-09T15:37:46;18.90;99.90
41904;DHT22;27586;51.124;4.182;2022-09-09T15:40:11;18.70;99.90
41904;DHT22;27586;51.124;4.182;2022-09-09T15:42:37;18.60;99.90
41904;DHT22;27586;51.124;4.182;2022-09-09T15:45:03;18.50;99.90
41904;DHT22;27586;51.124;4.182;2022-09-09T15:47:31;18.40;99.90
41904;DHT22;27586;51.124;4.182;2022-09-09T15:49:58;18.40;99.90
41904;DHT22;27586;51.124;4.182;2022-09-09T15:52:24;18.40;99.90
41904;DHT22;27586;51.124;4.182;2022-09-09T15:54:49;18.30;99.90
41904;DHT22;27586;51.124;4.182;2022-09-09T15:57:15;18.30;99.90
41904;DHT22;27586;51.124;4.182;2022-09-09T15:59:41;18.30;99.90
41904;DHT22;27586;51.124;4.182;2022-09-09T16:02:08;18.40;99.90
41904;DHT22;27586;51.124;4.182;2022-09-09T16:04:34;18.40;99.90
41904;DHT22;27586;51.124;4.182;2022-09-09T16:07:04;18.30;99.90
41904;DHT22;27586;51.124;4.182;2022-09-09T16:09:31;18.30;99.90
41904;DHT22;27586;51.124;4.182;2022-09-09T16:12:00;18.30;99.90
41904;DHT22;27586;51.124;4.182;2022-09-09T16:14:27;18.30;99.90
41904;DHT22;27586;51.124;4.182;2022-09-09T16:16:53;18.10;99.90
41904;DHT22;27586;51.124;4.182;2022-09-09T16:19:19;18.10;99.90
41904;DHT22;27586;51.124;4.182;2022-09-09T16:21:47;18.20;99.90
41904;DHT22;27586;51.124;4.182;2022-09-09T16:24:15;18.10;99.90
41904;DHT22;27586;51.124;4.182;2022-09-09T16:26:44;18.00;99.90
41904;DHT22;27586;51.124;4.182;2022-09-09T16:29:13;18.10;99.90
41904;DHT22;27586;51.124;4.182;2022-09-09T16:31:39;18.00;99.90
41904;DHT22;27586;51.124;4.182;2022-09-09T16:34:06;18.00;99.90
41904;DHT22;27586;51.124;4.182;2022-09-09T16:36:34;18.00;99.90
41904;DHT22;27586;51.124;4.182;2022-09-09T16:39:03;18.00;99.90
41904;DHT22;27586;51.124;4.182;2022-09-09T16:41:31;18.00;99.90
41904;DHT22;27586;51.124;4.182;2022-09-09T16:44:02;18.10;99.90
41904;DHT22;27586;51.124;4.182;2022-09-09T16:46:29;18.00;99.90
41904;DHT22;27586;51.124;4.182;2022-09-09T16:48:57;18.10;99.90
41904;DHT22;27586;51.124;4.182;2022-09-09T16:51:31;18.20;99.90
41904;DHT22;27586;51.124;4.182;2022-09-09T16:53:59;18.40;99.90
41904;DHT22;27586;51.124;4.182;2022-09-09T16:56:28;18.40;99.90
41904;DHT22;27586;51.124;4.182;2022-09-09T16:58:57;18.40;99.90
41904;DHT22;27586;51.124;4.182;2022-09-09T17:01:29;18.40;99.90
41904;DHT22;27586;51.124;4.182;2022-09-09T17:04:03;18.50;99.90
41904;DHT22;27586;51.124;4.182;2022-09-09T17:06:31;18.50;99.90
41904;DHT22;27586;51.124;4.182;2022-09-09T17:08:58;18.50;99.90
41904;DHT22;27586;51.124;4.182;2022-09-09T17:11:25;18.40;99.90
41904;DHT22;27586;51.124;4.182;2022-09-09T17:13:52;18.30;99.90
41904;DHT22;27586;51.124;4.182;2022-09-09T17:16:20;18.30;99.90
41904;DHT22;27586;51.124;4.182;2022-09-09T17:18:47;18.20;99.90
41904;DHT22;27586;51.124;4.182;2022-09-09T17:21:17;18.20;99.90
41904;DHT22;27586;51.124;4.182;2022-09-09T17:23:45;18.30;99.90
41904;DHT22;27586;51.124;4.182;2022-09-09T17:26:13;18.20;99.90
41904;DHT22;27586;51.124;4.182;2022-09-09T17:28:41;18.10;99.90
41904;DHT22;27586;51.124;4.182;2022-09-09T17:31:08;18.10;99.90
41904;DHT22;27586;51.124;4.182;2022-09-09T17:33:36;18.00;99.90
41904;DHT22;27586;51.124;4.182;2022-09-09T17:36:17;17.90;99.90
41904;DHT22;27586;51.124;4.182;2022-09-09T17:38:43;17.90;99.90
41904;DHT22;27586;51.124;4.182;2022-09-09T17:41:27;17.90;99.90
41904;DHT22;27586;51.124;4.182;2022-09-09T17:43:54;18.00;99.90
41904;DHT22;27586;51.124;4.182;2022-09-09T17:46:20;18.00;99.90
41904;DHT22;27586;51.124;4.182;2022-09-09T17:48:48;18.00;99.90
41904;DHT22;27586;51.124;4.182;2022-09-09T17:51:17;18.00;99.90
41904;DHT22;27586;51.124;4.182;2022-09-09T17:53:47;17.90;99.90
41904;DHT22;27586;51.124;4.182;2022-09-09T17:56:16;17.80;99.90
41904;DHT22;27586;51.124;4.182;2022-09-09T17:58:43;17.70;99.90
41904;DHT22;27586;51.124;4.182;2022-09-09T18:01:36;17.60;99.90
41904;DHT22;27586;51.124;4.182;2022-09-09T18:04:04;17.70;99.90
41904;DHT22;27586;51.124;4.182;2022-09-09T18:06:42;17.60;99.90
41904;DHT22;27586;51.124;4.182;2022-09-09T18:09:10;17.50;99.90
41904;DHT22;27586;51.124;4.182;2022-09-09T18:11:40;17.50;99.90
41904;DHT22;27586;51.124;4.182;2022-09-09T18:14:12;17.30;99.90